sensor_id;sensor_type;location;lat;lon;timestamp;pressure;altitude;pressure_sealevel;temperature;humidity
64189;BME280;50493;50.970;10.082;2022-08-05T00:01:36;98836.38;;;29.00;34.69
64189;BME280;50493;50.970;10.082;2022-08-05T00:04:03;98841.41;;;28.95;34.39
64189;BME280;50493;50.970;10.082;2022-08-05T00:06:29;98850.28;;;28.87;34.48
64189;BME280;50493;50.970;10.082;2022-08-05T00:08:54;98859.66;;;28.75;34.66
64189;BME280;50493;50.970;10.082;2022-08-05T00:11:19;98854.66;;;28.80;34.93
64189;BME280;50493;50.970;10.082;2022-08-05T00:13:45;98857.22;;;28.55;36.63
64189;BME280;50493;50.970;10.082;2022-08-05T00:16:12;98842.75;;;28.48;34.98
64189;BME280;50493;50.970;10.082;2022-08-05T00:18:46;98842.41;;;28.51;35.40
64189;BME280;50493;50.970;10.082;2022-08-05T00:21:14;98838.53;;;28.46;35.44
64189;BME280;50493;50.970;10.082;2022-08-05T00:23:41;98827.91;;;28.36;35.53
64189;BME280;50493;50.970;10.082;2022-08-05T00:26:07;98832.28;;;28.37;35.17
64189;BME280;50493;50.970;10.082;2022-08-05T00:28:33;98822.88;;;28.33;35.67
64189;BME280;50493;50.970;10.082;2022-08-05T00:30:58;98826.56;;;28.32;35.27
64189;BME280;50493;50.970;10.082;2022-08-05T00:33:23;98825.19;;;28.28;35.56
64189;BME280;50493;50.970;10.082;2022-08-05T00:35:49;98820.13;;;28.16;35.72
64189;BME280;50493;50.970;10.082;2022-08-05T00:38:16;98836.16;;;28.08;35.88
64189;BME280;50493;50.970;10.082;2022-08-05T00:40:45;98826.13;;;28.10;35.74
64189;BME280;50493;50.970;10.082;2022-08-05T00:43:11;98831.81;;;28.07;35.62
64189;BME280;50493;50.970;10.082;2022-08-05T00:45:36;98829.97;;;28.07;35.79
64189;BME280;50493;50.970;10.082;2022-08-05T00:48:02;98821.25;;;28.05;35.93
64189;BME280;50493;50.970;10.082;2022-08-05T00:50:27;98823.81;;;27.97;35.87
64189;BME280;50493;50.970;10.082;2022-08-05T00:52:53;98832.56;;;27.99;35.78
64189;BME280;50493;50.970;10.082;2022-08-05T00:55:19;98832.03;;;27.96;35.66
64189;BME280;50493;50.970;10.082;2022-08-05T00:57:45;98839.22;;;27.87;36.24
64189;BME280;50493;50.970;10.082;2022-08-05T01:00:11;98844.75;;;27.85;35.96
64189;BME280;50493;50.970;10.082;2022-08-05T01:02:37;98847.41;;;27.77;36.00
64189;BME280;50493;50.970;10.082;2022-08-05T01:05:02;98847.69;;;27.74;36.37
64189;BME280;50493;50.970;10.082;2022-08-05T01:07:28;98846.63;;;27.67;36.20
64189;BME280;50493;50.970;10.082;2022-08-05T01:09:53;98841.16;;;27.50;36.61
64189;BME280;50493;50.970;10.082;2022-08-05T01:12:20;98845.53;;;27.51;36.78
64189;BME280;50493;50.970;10.082;2022-08-05T01:14:49;98846.34;;;27.52;36.59
64189;BME280;50493;50.970;10.082;2022-08-05T01:17:19;98856.56;;;27.48;36.64
64189;BME280;50493;50.970;10.082;2022-08-05T01:19:51;98849.66;;;27.46;36.53
64189;BME280;50493;50.970;10.082;2022-08-05T01:22:28;98855.63;;;27.39;36.62
64189;BME280;50493;50.970;10.082;2022-08-05T01:25:04;98858.75;;;27.35;36.53
64189;BME280;50493;50.970;10.082;2022-08-05T01:27:48;98859.53;;;27.27;37.02
64189;BME280;50493;50.970;10.082;2022-08-05T01:30:16;98854.03;;;27.29;36.77
64189;BME280;50493;50.970;10.082;2022-08-05T01:32:43;98858.84;;;27.25;36.80
64189;BME280;50493;50.970;10.082;2022-08-05T01:35:13;98860.53;;;27.08;37.11
64189;BME280;50493;50.970;10.082;2022-08-05T01:37:44;98856.84;;;27.09;37.18
64189;BME280;50493;50.970;10.082;2022-08-05T01:40:10;98852.34;;;26.64;40.99
64189;BME280;50493;50.970;10.082;2022-08-05T01:42:38;98851.50;;;25.29;45.16
64189;BME280;50493;50.970;10.082;2022-08-05T01:45:07;98849.09;;;25.85;39.72
64189;BME280;50493;50.970;10.082;2022-08-05T01:47:34;98855.06;;;26.16;39.05
64189;BME280;50493;50.970;10.082;2022-08-05T01:50:02;98854.59;;;26.31;38.73
64189;BME280;50493;50.970;10.082;2022-08-05T01:52:30;98854.91;;;26.55;38.33
64189;BME280;50493;50.970;10.082;2022-08-05T01:54:58;98859.97;;;26.59;37.99
64189;BME280;50493;50.970;10.082;2022-08-05T01:57:29;98861.41;;;26.53;38.19
64189;BME280;50493;50.970;10.082;2022-08-05T01:59:59;98867.03;;;26.60;38.05
64189;BME280;50493;50.970;10.082;2022-08-05T02:02:28;98870.94;;;26.65;37.60
64189;BME280;50493;50.970;10.082;2022-08-05T02:04:57;98885.03;;;26.67;37.80
64189;BME280;50493;50.970;10.082;2022-08-05T02:07:24;98888.75;;;26.56;37.84
64189;BME280;50493;50.970;10.082;2022-08-05T02:09:50;98916.16;;;26.50;37.88
64189;BME280;50493;50.970;10.082;2022-08-05T02:12:19;98975.69;;;26.44;37.95
64189;BME280;50493;50.970;10.082;2022-08-05T02:14:51;99010.81;;;26.21;41.07
64189;BME280;50493;50.970;10.082;2022-08-05T02:17:22;99002.97;;;25.90;39.26
64189;BME280;50493;50.970;10.082;2022-08-05T02:19:56;98971.53;;;25.73;39.60
64189;BME280;50493;50.970;10.082;2022-08-05T02:22:27;98985.91;;;25.72;39.78
64189;BME280;50493;50.970;10.082;2022-08-05T02:24:57;99012.66;;;25.72;40.06
64189;BME280;50493;50.970;10.082;2022-08-05T02:27:26;99026.47;;;25.67;40.06
64189;BME280;50493;50.970;10.082;2022-08-05T02:29:53;99019.44;;;25.66;39.86
64189;BME280;50493;50.970;10.082;2022-08-05T02:32:20;99024.19;;;25.63;40.17
64189;BME280;50493;50.970;10.082;2022-08-05T02:34:48;99034.09;;;25.72;39.64
64189;BME280;50493;50.970;10.082;2022-08-05T02:37:15;99065.28;;;25.62;40.08
64189;BME280;50493;50.970;10.082;2022-08-05T02:39:42;99087.91;;;25.69;40.13
64189;BME280;50493;50.970;10.082;2022-08-05T02:42:08;99098.91;;;25.85;40.96
64189;BME280;50493;50.970;10.082;2022-08-05T02:44:36;99094.66;;;25.73;40.00
64189;BME280;50493;50.970;10.082;2022-08-05T02:47:04;99083.34;;;25.60;40.09
64189;BME280;50493;50.970;10.082;2022-08-05T02:49:34;99074.19;;;25.62;40.33
64189;BME280;50493;50.970;10.082;2022-08-05T02:52:01;99069.16;;;25.69;39.93
64189;BME280;50493;50.970;10.082;2022-08-05T02:54:30;99055.41;;;25.43;40.83
64189;BME280;50493;50.970;10.082;2022-08-05T02:56:57;99048.63;;;25.29;40.90
64189;BME280;50493;50.970;10.082;2022-08-05T02:59:23;99070.63;;;25.42;41.22
64189;BME280;50493;50.970;10.082;2022-08-05T03:01:51;99073.66;;;25.28;41.43
64189;BME280;50493;50.970;10.082;2022-08-05T03:04:22;99064.78;;;25.17;41.65
64189;BME280;50493;50.970;10.082;2022-08-05T03:06:48;99039.97;;;25.15;42.80
64189;BME280;50493;50.970;10.082;2022-08-05T03:09:13;99008.03;;;25.23;41.82
64189;BME280;50493;50.970;10.082;2022-08-05T03:11:42;99009.59;;;25.16;41.71
64189;BME280;50493;50.970;10.082;2022-08-05T03:14:10;98998.59;;;25.10;41.92
64189;BME280;50493;50.970;10.082;2022-08-05T03:16:36;98989.72;;;25.09;42.43
64189;BME280;50493;50.970;10.082;2022-08-05T03:19:02;98986.25;;;25.28;42.14
64189;BME280;50493;50.970;10.082;2022-08-05T03:21:27;98990.59;;;25.19;50.32
64189;BME280;50493;50.970;10.082;2022-08-05T03:23:53;98966.19;;;24.72;63.92
64189;BME280;50493;50.970;10.082;2022-08-05T03:26:19;98931.78;;;22.06;69.94
64189;BME280;50493;50.970;10.082;2022-08-05T03:28:46;57397.97;;;-149.79;100.00
64189;BME280;50493;50.970;10.082;2022-08-05T03:31:12;98878.91;;;20.69;72.01
64189;BME280;50493;50.970;10.082;2022-08-05T03:33:37;98854.09;;;19.14;83.46
64189;BME280;50493;50.970;10.082;2022-08-05T03:36:04;98842.41;;;18.47;83.45
64189;BME280;50493;50.970;10.082;2022-08-05T03:38:30;98823.81;;;19.31;70.33
64189;BME280;50493;50.970;10.082;2022-08-05T03:40:55;98822.03;;;20.47;64.76
64189;BME280;50493;50.970;10.082;2022-08-05T03:43:21;98826.06;;;21.14;57.83
64189;BME280;50493;50.970;10.082;2022-08-05T03:45:51;98819.34;;;20.97;66.49
64189;BME280;50493;50.970;10.082;2022-08-05T03:48:18;98811.81;;;21.15;58.92
64189;BME280;50493;50.970;10.082;2022-08-05T03:50:49;98818.28;;;21.94;53.08
64189;BME280;50493;50.970;10.082;2022-08-05T03:53:23;98826.06;;;22.42;51.97
64189;BME280;50493;50.970;10.082;2022-08-05T03:55:57;98807.19;;;22.45;59.23
64189;BME280;50493;50.970;10.082;2022-08-05T03:58:26;98807.16;;;22.11;59.50
64189;BME280;50493;50.970;10.082;2022-08-05T04:00:55;98817.06;;;22.54;51.62
64189;BME280;50493;50.970;10.082;2022-08-05T04:03:22;98834.47;;;22.81;55.24
64189;BME280;50493;50.970;10.082;2022-08-05T04:05:49;98833.72;;;22.91;60.89
64189;BME280;50493;50.970;10.082;2022-08-05T04:08:15;98827.91;;;22.97;48.39
64189;BME280;50493;50.970;10.082;2022-08-05T04:10:42;98835.25;;;23.37;59.43
64189;BME280;50493;50.970;10.082;2022-08-05T04:13:09;98847.06;;;23.23;60.60
64189;BME280;50493;50.970;10.082;2022-08-05T04:15:35;98847.59;;;23.17;48.59
64189;BME280;50493;50.970;10.082;2022-08-05T04:18:02;98870.03;;;23.03;48.25
64189;BME280;50493;50.970;10.082;2022-08-05T04:20:28;98885.50;;;23.20;47.08
64189;BME280;50493;50.970;10.082;2022-08-05T04:22:54;98892.59;;;23.43;46.84
64189;BME280;50493;50.970;10.082;2022-08-05T04:25:19;98904.44;;;23.50;56.40
64189;BME280;50493;50.970;10.082;2022-08-05T04:27:44;98900.91;;;23.49;48.02
64189;BME280;50493;50.970;10.082;2022-08-05T04:30:10;98906.78;;;23.64;45.87
64189;BME280;50493;50.970;10.082;2022-08-05T04:32:36;98932.47;;;23.77;45.30
64189;BME280;50493;50.970;10.082;2022-08-05T04:35:03;98953.22;;;23.73;45.54
64189;BME280;50493;50.970;10.082;2022-08-05T04:37:28;98972.09;;;23.81;54.54
64189;BME280;50493;50.970;10.082;2022-08-05T04:39:54;98996.72;;;23.85;46.80
64189;BME280;50493;50.970;10.082;2022-08-05T04:42:20;99018.34;;;23.70;52.25
64189;BME280;50493;50.970;10.082;2022-08-05T04:44:45;99021.63;;;23.63;54.68
64189;BME280;50493;50.970;10.082;2022-08-05T04:47:10;99034.88;;;23.53;46.24
64189;BME280;50493;50.970;10.082;2022-08-05T04:49:37;99035.28;;;23.26;46.31
64189;BME280;50493;50.970;10.082;2022-08-05T04:52:04;99049.16;;;23.52;45.76
64189;BME280;50493;50.970;10.082;2022-08-05T04:54:30;99043.75;;;23.42;45.86
64189;BME280;50493;50.970;10.082;2022-08-05T04:56:55;99038.88;;;23.47;45.60
64189;BME280;50493;50.970;10.082;2022-08-05T04:59:21;99038.59;;;23.73;45.40
64189;BME280;50493;50.970;10.082;2022-08-05T05:01:47;99037.63;;;23.63;45.62
64189;BME280;50493;50.970;10.082;2022-08-05T05:04:12;99038.59;;;23.73;45.29
64189;BME280;50493;50.970;10.082;2022-08-05T05:06:38;99041.75;;;23.78;44.95
64189;BME280;50493;50.970;10.082;2022-08-05T05:09:04;99046.22;;;23.78;45.33
64189;BME280;50493;50.970;10.082;2022-08-05T05:11:30;99040.44;;;23.72;44.78
64189;BME280;50493;50.970;10.082;2022-08-05T05:13:55;99037.41;;;23.66;45.19
64189;BME280;50493;50.970;10.082;2022-08-05T05:16:20;99036.28;;;23.68;51.09
64189;BME280;50493;50.970;10.082;2022-08-05T05:18:46;99052.06;;;23.71;52.37
64189;BME280;50493;50.970;10.082;2022-08-05T05:21:11;99065.53;;;23.70;54.91
64189;BME280;50493;50.970;10.082;2022-08-05T05:23:37;99077.06;;;23.48;55.66
64189;BME280;50493;50.970;10.082;2022-08-05T05:26:04;99060.97;;;23.15;59.41
64189;BME280;50493;50.970;10.082;2022-08-05T05:28:29;99067.50;;;23.00;59.15
64189;BME280;50493;50.970;10.082;2022-08-05T05:30:54;99056.41;;;23.06;62.14
64189;BME280;50493;50.970;10.082;2022-08-05T05:33:20;99059.97;;;22.00;68.97
64189;BME280;50493;50.970;10.082;2022-08-05T05:35:45;99072.06;;;22.28;67.34
64189;BME280;50493;50.970;10.082;2022-08-05T05:38:11;99076.91;;;21.99;68.92
64189;BME280;50493;50.970;10.082;2022-08-05T05:40:37;99076.19;;;21.73;73.50
64189;BME280;50493;50.970;10.082;2022-08-05T05:43:03;99075.53;;;21.32;77.87
64189;BME280;50493;50.970;10.082;2022-08-05T05:45:29;99081.78;;;20.53;78.14
64189;BME280;50493;50.970;10.082;2022-08-05T05:47:56;99079.31;;;20.25;81.48
64189;BME280;50493;50.970;10.082;2022-08-05T05:50:22;99074.69;;;20.80;81.63
64189;BME280;50493;50.970;10.082;2022-08-05T05:52:47;99052.66;;;20.39;81.81
64189;BME280;50493;50.970;10.082;2022-08-05T05:55:13;99053.75;;;20.49;77.04
64189;BME280;50493;50.970;10.082;2022-08-05T05:57:41;99054.81;;;20.60;73.11
64189;BME280;50493;50.970;10.082;2022-08-05T06:00:12;99034.44;;;20.60;71.16
64189;BME280;50493;50.970;10.082;2022-08-05T06:02:38;99018.59;;;20.71;69.58
64189;BME280;50493;50.970;10.082;2022-08-05T06:05:05;99014.66;;;20.77;69.04
64189;BME280;50493;50.970;10.082;2022-08-05T06:07:31;99038.06;;;20.98;66.52
64189;BME280;50493;50.970;10.082;2022-08-05T06:09:56;99031.66;;;21.13;65.05
64189;BME280;50493;50.970;10.082;2022-08-05T06:12:22;99005.50;;;21.07;73.70
64189;BME280;50493;50.970;10.082;2022-08-05T06:14:47;99009.06;;;21.32;63.59
64189;BME280;50493;50.970;10.082;2022-08-05T06:17:14;99013.25;;;21.47;62.10
64189;BME280;50493;50.970;10.082;2022-08-05T06:19:39;98998.53;;;21.67;63.06
64189;BME280;50493;50.970;10.082;2022-08-05T06:22:06;98976.31;;;21.55;70.42
64189;BME280;50493;50.970;10.082;2022-08-05T06:24:32;98972.03;;;21.66;59.93
64189;BME280;50493;50.970;10.082;2022-08-05T06:26:57;98981.78;;;21.89;57.95
64189;BME280;50493;50.970;10.082;2022-08-05T06:29:23;99001.56;;;21.98;57.39
64189;BME280;50493;50.970;10.082;2022-08-05T06:31:48;99028.81;;;22.13;56.74
64189;BME280;50493;50.970;10.082;2022-08-05T06:34:15;99039.44;;;22.37;64.64
64189;BME280;50493;50.970;10.082;2022-08-05T06:36:40;99050.41;;;22.33;57.02
64189;BME280;50493;50.970;10.082;2022-08-05T06:39:06;99056.50;;;22.35;56.31
64189;BME280;50493;50.970;10.082;2022-08-05T06:41:31;99066.69;;;22.41;56.55
64189;BME280;50493;50.970;10.082;2022-08-05T06:43:57;99077.56;;;22.38;56.07
64189;BME280;50493;50.970;10.082;2022-08-05T06:46:22;99071.66;;;22.34;54.57
64189;BME280;50493;50.970;10.082;2022-08-05T06:48:47;99071.00;;;22.31;53.87
64189;BME280;50493;50.970;10.082;2022-08-05T06:51:14;99079.69;;;22.33;53.86
64189;BME280;50493;50.970;10.082;2022-08-05T06:53:39;99070.47;;;22.50;53.50
64189;BME280;50493;50.970;10.082;2022-08-05T06:56:05;99081.00;;;22.51;52.89
64189;BME280;50493;50.970;10.082;2022-08-05T06:58:31;99072.44;;;22.70;54.93
64189;BME280;50493;50.970;10.082;2022-08-05T07:00:57;99075.72;;;22.85;54.24
64189;BME280;50493;50.970;10.082;2022-08-05T07:03:22;99079.53;;;23.17;51.57
64189;BME280;50493;50.970;10.082;2022-08-05T07:05:48;99069.88;;;23.82;51.37
64189;BME280;50493;50.970;10.082;2022-08-05T07:08:14;99064.16;;;24.83;46.08
64189;BME280;50493;50.970;10.082;2022-08-05T07:10:40;99067.81;;;25.44;56.97
64189;BME280;50493;50.970;10.082;2022-08-05T07:13:05;99070.34;;;25.04;58.46
64189;BME280;50493;50.970;10.082;2022-08-05T07:15:49;99039.56;;;26.19;55.79
64189;BME280;50493;50.970;10.082;2022-08-05T07:18:33;99024.13;;;25.33;58.24
64189;BME280;50493;50.970;10.082;2022-08-05T07:20:58;99022.72;;;24.67;59.80
64189;BME280;50493;50.970;10.082;2022-08-05T07:23:25;99011.13;;;24.57;61.23
64189;BME280;50493;50.970;10.082;2022-08-05T07:25:50;99002.44;;;23.80;63.22
64189;BME280;50493;50.970;10.082;2022-08-05T07:28:16;99014.13;;;23.56;63.31
64189;BME280;50493;50.970;10.082;2022-08-05T07:30:41;99005.78;;;24.57;56.32
64189;BME280;50493;50.970;10.082;2022-08-05T07:33:09;98992.53;;;25.78;53.00
64189;BME280;50493;50.970;10.082;2022-08-05T07:35:35;99019.34;;;25.37;43.81
64189;BME280;50493;50.970;10.082;2022-08-05T07:38:01;99025.25;;;25.31;44.04
64189;BME280;50493;50.970;10.082;2022-08-05T07:40:27;99026.66;;;24.94;44.47
64189;BME280;50493;50.970;10.082;2022-08-05T07:42:53;99033.59;;;25.37;45.16
64189;BME280;50493;50.970;10.082;2022-08-05T07:45:18;99038.22;;;25.45;57.06
64189;BME280;50493;50.970;10.082;2022-08-05T07:47:45;99034.09;;;24.06;61.55
64189;BME280;50493;50.970;10.082;2022-08-05T07:50:10;99030.06;;;24.75;59.26
64189;BME280;50493;50.970;10.082;2022-08-05T07:52:37;99016.06;;;25.74;58.32
64189;BME280;50493;50.970;10.082;2022-08-05T07:55:03;99011.59;;;24.93;54.77
64189;BME280;50493;50.970;10.082;2022-08-05T07:57:30;99016.31;;;23.95;64.32
64189;BME280;50493;50.970;10.082;2022-08-05T07:59:55;99009.06;;;24.39;59.36
64189;BME280;50493;50.970;10.082;2022-08-05T08:02:25;99003.38;;;24.33;60.35
64189;BME280;50493;50.970;10.082;2022-08-05T08:04:50;99005.00;;;25.38;56.61
64189;BME280;50493;50.970;10.082;2022-08-05T08:07:16;99012.78;;;26.96;52.47
64189;BME280;50493;50.970;10.082;2022-08-05T08:09:42;99020.28;;;27.20;50.17
64189;BME280;50493;50.970;10.082;2022-08-05T08:12:07;99021.84;;;27.41;49.59
64189;BME280;50493;50.970;10.082;2022-08-05T08:14:34;99035.63;;;27.00;49.82
64189;BME280;50493;50.970;10.082;2022-08-05T08:17:00;99032.47;;;27.05;49.22
64189;BME280;50493;50.970;10.082;2022-08-05T08:19:25;99036.56;;;26.62;47.56
64189;BME280;50493;50.970;10.082;2022-08-05T08:21:50;99042.66;;;26.44;42.03
64189;BME280;50493;50.970;10.082;2022-08-05T08:24:16;99053.25;;;26.16;42.23
64189;BME280;50493;50.970;10.082;2022-08-05T08:26:41;99068.78;;;26.32;50.78
64189;BME280;50493;50.970;10.082;2022-08-05T08:29:06;99068.59;;;26.24;51.44
64189;BME280;50493;50.970;10.082;2022-08-05T08:31:33;99062.88;;;26.29;51.21
64189;BME280;50493;50.970;10.082;2022-08-05T08:33:58;99045.34;;;26.05;46.23
64189;BME280;50493;50.970;10.082;2022-08-05T08:36:24;99038.53;;;25.52;52.87
64189;BME280;50493;50.970;10.082;2022-08-05T08:38:49;99052.28;;;25.98;52.69
64189;BME280;50493;50.970;10.082;2022-08-05T08:41:15;99063.66;;;26.59;43.02
64189;BME280;50493;50.970;10.082;2022-08-05T08:43:42;99082.41;;;27.53;49.53
64189;BME280;50493;50.970;10.082;2022-08-05T08:46:08;99071.13;;;27.50;48.39
64189;BME280;50493;50.970;10.082;2022-08-05T08:48:36;99064.75;;;28.33;44.13
64189;BME280;50493;50.970;10.082;2022-08-05T08:51:03;99078.13;;;27.33;48.92
64189;BME280;50493;50.970;10.082;2022-08-05T08:53:34;99088.41;;;28.11;46.53
64189;BME280;50493;50.970;10.082;2022-08-05T08:56:01;99081.72;;;27.51;48.57
64189;BME280;50493;50.970;10.082;2022-08-05T08:58:27;99082.81;;;27.59;48.44
64189;BME280;50493;50.970;10.082;2022-08-05T09:00:52;99074.75;;;27.59;46.52
64189;BME280;50493;50.970;10.082;2022-08-05T09:03:19;99090.38;;;28.45;45.28
64189;BME280;50493;50.970;10.082;2022-08-05T09:05:47;99090.31;;;28.81;40.27
64189;BME280;50493;50.970;10.082;2022-08-05T09:08:12;99097.97;;;28.68;42.88
64189;BME280;50493;50.970;10.082;2022-08-05T09:10:39;99094.47;;;28.57;45.36
64189;BME280;50493;50.970;10.082;2022-08-05T09:13:05;99096.09;;;27.78;44.56
64189;BME280;50493;50.970;10.082;2022-08-05T09:15:30;99095.25;;;28.05;43.11
64189;BME280;50493;50.970;10.082;2022-08-05T09:17:56;99076.03;;;28.18;41.43
64189;BME280;50493;50.970;10.082;2022-08-05T09:20:21;99070.50;;;28.20;45.06
64189;BME280;50493;50.970;10.082;2022-08-05T09:23:09;99074.19;;;29.50;46.13
64189;BME280;50493;50.970;10.082;2022-08-05T09:25:37;99075.69;;;30.53;36.09
64189;BME280;50493;50.970;10.082;2022-08-05T09:28:14;99079.88;;;29.47;37.12
64189;BME280;50493;50.970;10.082;2022-08-05T09:31:02;99079.34;;;29.86;41.45
64189;BME280;50493;50.970;10.082;2022-08-05T09:33:31;99080.22;;;30.03;40.81
64189;BME280;50493;50.970;10.082;2022-08-05T09:35:58;99075.69;;;28.84;38.42
64189;BME280;50493;50.970;10.082;2022-08-05T09:38:25;99060.19;;;29.38;42.05
64189;BME280;50493;50.970;10.082;2022-08-05T09:40:51;99076.97;;;28.53;42.30
64189;BME280;50493;50.970;10.082;2022-08-05T09:43:29;99072.59;;;28.52;41.81
64189;BME280;50493;50.970;10.082;2022-08-05T09:45:54;99068.84;;;28.45;39.72
64189;BME280;50493;50.970;10.082;2022-08-05T09:48:22;99075.59;;;28.49;39.90
64189;BME280;50493;50.970;10.082;2022-08-05T09:50:50;99071.72;;;28.26;42.96
64189;BME280;50493;50.970;10.082;2022-08-05T09:53:16;99066.50;;;28.42;40.37
64189;BME280;50493;50.970;10.082;2022-08-05T09:55:43;99069.75;;;28.72;41.97
64189;BME280;50493;50.970;10.082;2022-08-05T09:58:09;99061.13;;;28.42;43.74
64189;BME280;50493;50.970;10.082;2022-08-05T10:00:35;99054.72;;;27.53;41.94
64189;BME280;50493;50.970;10.082;2022-08-05T10:03:08;99062.97;;;28.23;41.35
64189;BME280;50493;50.970;10.082;2022-08-05T10:05:34;99062.22;;;28.57;40.00
64189;BME280;50493;50.970;10.082;2022-08-05T10:08:02;99058.16;;;28.09;40.71
64189;BME280;50493;50.970;10.082;2022-08-05T10:10:31;99058.56;;;27.86;44.38
64189;BME280;50493;50.970;10.082;2022-08-05T10:13:03;99060.03;;;27.63;41.76
64189;BME280;50493;50.970;10.082;2022-08-05T10:15:30;99058.25;;;27.53;41.94
64189;BME280;50493;50.970;10.082;2022-08-05T10:18:09;99056.63;;;27.05;43.20
64189;BME280;50493;50.970;10.082;2022-08-05T10:20:38;99069.25;;;27.22;43.01
64189;BME280;50493;50.970;10.082;2022-08-05T10:23:04;99071.22;;;26.93;43.82
64189;BME280;50493;50.970;10.082;2022-08-05T10:25:29;99067.03;;;26.70;44.39
64189;BME280;50493;50.970;10.082;2022-08-05T10:27:56;99066.94;;;27.10;43.45
64189;BME280;50493;50.970;10.082;2022-08-05T10:30:23;99075.50;;;26.76;44.36
64189;BME280;50493;50.970;10.082;2022-08-05T10:32:50;99074.38;;;26.59;46.68
64189;BME280;50493;50.970;10.082;2022-08-05T10:35:15;99075.81;;;26.53;45.88
64189;BME280;50493;50.970;10.082;2022-08-05T10:37:41;99070.22;;;27.31;43.26
64189;BME280;50493;50.970;10.082;2022-08-05T10:40:13;99064.25;;;27.00;46.32
64189;BME280;50493;50.970;10.082;2022-08-05T10:42:42;99062.25;;;26.54;45.90
64189;BME280;50493;50.970;10.082;2022-08-05T10:45:12;99072.72;;;26.38;46.85
64189;BME280;50493;50.970;10.082;2022-08-05T10:47:41;99071.75;;;26.39;46.37
64189;BME280;50493;50.970;10.082;2022-08-05T10:50:10;99072.28;;;27.10;44.64
64189;BME280;50493;50.970;10.082;2022-08-05T10:52:39;99069.22;;;26.85;47.18
64189;BME280;50493;50.970;10.082;2022-08-05T10:55:07;99063.38;;;27.09;45.14
64189;BME280;50493;50.970;10.082;2022-08-05T10:57:34;99060.94;;;27.26;45.40
64189;BME280;50493;50.970;10.082;2022-08-05T11:00:06;99064.59;;;27.24;44.46
64189;BME280;50493;50.970;10.082;2022-08-05T11:02:32;99059.72;;;27.10;45.24
64189;BME280;50493;50.970;10.082;2022-08-05T11:05:02;99063.19;;;26.83;45.91
64189;BME280;50493;50.970;10.082;2022-08-05T11:07:28;99059.91;;;26.99;45.50
64189;BME280;50493;50.970;10.082;2022-08-05T11:09:53;99057.41;;;27.53;44.29
64189;BME280;50493;50.970;10.082;2022-08-05T11:12:41;99056.19;;;27.37;44.53
64189;BME280;50493;50.970;10.082;2022-08-05T11:15:19;99066.00;;;27.56;44.28
64189;BME280;50493;50.970;10.082;2022-08-05T11:17:46;99075.19;;;27.54;44.27
64189;BME280;50493;50.970;10.082;2022-08-05T11:20:32;99073.88;;;28.04;43.23
64189;BME280;50493;50.970;10.082;2022-08-05T11:22:59;99076.78;;;27.93;43.20
64189;BME280;50493;50.970;10.082;2022-08-05T11:25:29;99084.50;;;28.68;41.69
64189;BME280;50493;50.970;10.082;2022-08-05T11:27:55;99081.44;;;29.15;41.20
64189;BME280;50493;50.970;10.082;2022-08-05T11:30:20;99081.56;;;28.17;42.48
64189;BME280;50493;50.970;10.082;2022-08-05T11:32:46;99089.38;;;28.99;40.19
64189;BME280;50493;50.970;10.082;2022-08-05T11:38:11;99088.59;;;29.33;40.32
64189;BME280;50493;50.970;10.082;2022-08-05T11:40:57;99102.94;;;29.50;39.52
64189;BME280;50493;50.970;10.082;2022-08-05T11:43:23;99102.31;;;29.64;37.64
64189;BME280;50493;50.970;10.082;2022-08-05T11:45:49;99095.78;;;29.67;38.38
64189;BME280;50493;50.970;10.082;2022-08-05T11:48:14;99097.13;;;29.28;39.62
64189;BME280;50493;50.970;10.082;2022-08-05T11:50:40;99109.22;;;28.71;40.37
64189;BME280;50493;50.970;10.082;2022-08-05T11:53:06;99088.38;;;29.00;40.20
64189;BME280;50493;50.970;10.082;2022-08-05T11:55:33;99090.72;;;28.95;41.03
64189;BME280;50493;50.970;10.082;2022-08-05T11:57:59;99088.56;;;29.76;37.08
64189;BME280;50493;50.970;10.082;2022-08-05T12:00:25;99090.09;;;28.74;41.37
64189;BME280;50493;50.970;10.082;2022-08-05T12:02:50;99096.69;;;29.41;37.79
64189;BME280;50493;50.970;10.082;2022-08-05T12:05:24;99095.38;;;29.53;39.33
64189;BME280;50493;50.970;10.082;2022-08-05T12:07:50;99096.50;;;29.34;39.73
64189;BME280;50493;50.970;10.082;2022-08-05T12:10:17;99096.81;;;29.05;40.16
64189;BME280;50493;50.970;10.082;2022-08-05T12:12:45;99110.31;;;29.39;39.14
64189;BME280;50493;50.970;10.082;2022-08-05T12:15:17;99105.38;;;29.27;39.77
64189;BME280;50493;50.970;10.082;2022-08-05T12:17:43;99114.69;;;29.40;37.64
64189;BME280;50493;50.970;10.082;2022-08-05T12:20:10;99123.41;;;29.34;39.95
64189;BME280;50493;50.970;10.082;2022-08-05T12:22:37;99117.97;;;29.61;37.69
64189;BME280;50493;50.970;10.082;2022-08-05T12:25:04;99111.88;;;28.89;39.29
64189;BME280;50493;50.970;10.082;2022-08-05T12:27:30;99109.19;;;28.89;39.41
64189;BME280;50493;50.970;10.082;2022-08-05T12:30:03;99111.28;;;29.04;40.43
64189;BME280;50493;50.970;10.082;2022-08-05T12:32:30;99116.03;;;29.10;40.39
64189;BME280;50493;50.970;10.082;2022-08-05T12:34:56;99120.53;;;28.75;41.33
64189;BME280;50493;50.970;10.082;2022-08-05T12:37:21;99125.06;;;28.56;42.01
64189;BME280;50493;50.970;10.082;2022-08-05T12:39:48;99135.22;;;28.45;42.14
64189;BME280;50493;50.970;10.082;2022-08-05T12:42:16;99137.06;;;28.44;41.81
64189;BME280;50493;50.970;10.082;2022-08-05T12:44:42;99139.59;;;28.10;42.96
64189;BME280;50493;50.970;10.082;2022-08-05T12:47:10;99135.53;;;28.23;42.23
64189;BME280;50493;50.970;10.082;2022-08-05T12:49:40;99134.63;;;28.33;42.56
64189;BME280;50493;50.970;10.082;2022-08-05T12:52:10;99136.38;;;28.86;39.52
64189;BME280;50493;50.970;10.082;2022-08-05T12:54:39;99133.13;;;29.01;40.49